Time;durP1;ratioP1;P1;durP2;ratioP2;P2;SDS_P1;SDS_P2;PMS_P1;PMS_P2;Temp;Humidity;BMP_temperature;BMP_pressure;BME280_temperature;BME280_humidity;BME280_pressure;Samples;Min_cycle;Max_cycle;Signal;HPM_P1;HPM_P2
2022/04/11 00:02:24;;;;;;;12.47;6.45;;;;;;;12.48;97.52;99666.52;1749742;82;21082;-72
2022/04/11 00:04:52;;;;;;;11.10;5.62;;;;;;;12.49;97.72;99667.72;1749517;82;21152;-70
2022/04/11 00:07:20;;;;;;;13.13;5.35;;;;;;;12.48;98.56;99667.81;1752806;82;21106;-71
2022/04/11 00:09:48;;;;;;;10.43;5.15;;;;;;;12.45;99.23;99670.58;1755130;82;21019;-72
2022/04/11 00:12:16;;;;;;;12.33;5.85;;;;;;;12.46;99.75;99678.70;1755099;82;21031;-72
2022/04/11 00:14:45;;;;;;;12.82;5.58;;;;;;;12.42;100.00;99673.73;1748238;82;21508;-71
2022/04/11 00:17:14;;;;;;;12.80;5.33;;;;;;;12.48;100.00;99672.50;1744821;82;21020;-71
2022/04/11 00:19:43;;;;;;;12.10;5.45;;;;;;;12.42;100.00;99669.03;1744802;82;21059;-71
2022/04/11 00:22:13;;;;;;;13.58;5.80;;;;;;;12.44;100.00;99680.08;1744885;82;21520;-72
2022/04/11 00:24:41;;;;;;;11.45;5.58;;;;;;;12.40;100.00;99673.47;1744910;81;21042;-72
2022/04/11 00:27:10;;;;;;;14.03;5.80;;;;;;;12.38;100.00;99671.45;1744976;82;21000;-71
2022/04/11 00:29:38;;;;;;;13.55;5.28;;;;;;;12.40;100.00;99666.55;1744881;82;21058;-71
2022/04/11 00:32:08;;;;;;;13.68;5.42;;;;;;;12.37;100.00;99667.23;1744681;82;21075;-71
2022/04/11 00:34:37;;;;;;;12.37;5.97;;;;;;;12.32;100.00;99674.43;1744727;81;21082;-72
2022/04/11 00:37:06;;;;;;;11.22;5.75;;;;;;;12.30;100.00;99677.57;1744308;81;21507;-69
2022/04/11 00:39:36;;;;;;;13.25;5.78;;;;;;;12.25;100.00;99675.30;1744932;82;21459;-72
2022/04/11 00:42:13;;;;;;;11.22;5.85;;;;;;;12.27;100.00;99672.16;1744628;82;21511;-71
2022/04/11 00:44:41;;;;;;;14.93;5.45;;;;;;;12.13;100.00;99678.20;1745090;81;21055;-71
2022/04/11 00:47:08;;;;;;;13.13;6.08;;;;;;;12.05;100.00;99673.17;1745032;81;21031;-71
2022/04/11 00:49:36;;;;;;;12.50;5.80;;;;;;;12.00;100.00;99670.42;1744795;82;21029;-71
2022/04/11 00:52:06;;;;;;;12.28;5.50;;;;;;;11.98;100.00;99663.68;1745072;81;21071;-71
2022/04/11 00:54:33;;;;;;;11.43;6.03;;;;;;;12.00;100.00;99665.26;1745114;82;21015;-71
2022/04/11 00:57:02;;;;;;;11.80;5.87;;;;;;;11.94;100.00;99666.09;1745020;81;21083;-71
2022/04/11 00:59:30;;;;;;;10.10;5.67;;;;;;;11.93;100.00;99668.32;1745002;82;21035;-71
2022/04/11 01:01:59;;;;;;;10.40;5.78;;;;;;;11.90;100.00;99664.63;1745002;81;21075;-72
2022/04/11 01:04:28;;;;;;;13.68;5.95;;;;;;;11.86;100.00;99676.03;1744854;81;21035;-71
2022/04/11 01:06:57;;;;;;;13.75;6.00;;;;;;;11.87;100.00;99675.13;1747000;81;21137;-71
2022/04/11 01:09:27;;;;;;;13.18;6.08;;;;;;;11.89;100.00;99680.57;1717307;82;21059;-71
2022/04/11 01:11:58;;;;;;;10.32;5.45;;;;;;;11.83;100.00;99683.03;1716442;84;21004;-71
2022/04/11 01:14:27;;;;;;;10.65;5.80;;;;;;;11.80;100.00;99683.68;1716840;82;21026;-72
2022/04/11 01:16:57;;;;;;;13.30;5.80;;;;;;;11.74;100.00;99681.48;1716586;84;21071;-72
2022/04/11 01:19:23;;;;;;;11.03;5.85;;;;;;;11.73;100.00;99682.42;1716518;83;21062;-71
2022/04/11 01:21:50;;;;;;;15.00;6.20;;;;;;;11.68;100.00;99685.30;1716533;82;21009;-71
2022/04/11 01:24:21;;;;;;;12.88;5.95;;;;;;;11.66;100.00;99684.56;1716417;82;21028;-72
2022/04/11 01:26:50;;;;;;;13.03;6.20;;;;;;;11.56;100.00;99683.47;1708573;83;21008;-72
2022/04/11 01:29:20;;;;;;;12.78;6.28;;;;;;;11.53;100.00;99682.36;1716697;83;21039;-71
2022/04/11 01:31:48;;;;;;;13.83;6.22;;;;;;;11.42;100.00;99672.25;1716848;83;21468;-70
2022/04/11 01:34:16;;;;;;;14.05;5.72;;;;;;;11.32;100.00;99676.30;1716570;82;21064;-72
2022/04/11 01:36:43;;;;;;;9.68;6.25;;;;;;;11.26;100.00;99674.10;1716557;84;21059;-72
2022/04/11 01:39:12;;;;;;;10.82;6.10;;;;;;;11.25;100.00;99677.58;1716417;84;21048;-71
2022/04/11 01:41:39;;;;;;;13.85;6.40;;;;;;;11.15;100.00;99679.91;1716566;84;21575;-72
2022/04/11 01:44:07;;;;;;;13.22;6.30;;;;;;;11.09;100.00;99678.13;1716528;84;21064;-72
2022/04/11 01:46:35;;;;;;;15.08;6.30;;;;;;;11.01;100.00;99682.47;1716553;84;21013;-72
2022/04/11 01:49:10;;;;;;;12.53;6.33;;;;;;;11.06;100.00;99686.88;1715456;83;21576;-71
2022/04/11 01:51:39;;;;;;;12.90;6.65;;;;;;;11.03;100.00;99689.19;1716823;82;21035;-72
2022/04/11 01:54:08;;;;;;;14.07;5.85;;;;;;;10.98;100.00;99691.19;1716679;84;21044;-72
2022/04/11 01:56:35;;;;;;;10.93;6.72;;;;;;;10.96;100.00;99696.06;1716850;83;21099;-72
2022/04/11 01:59:04;;;;;;;15.85;6.50;;;;;;;10.91;100.00;99696.34;1716488;84;21160;-72
2022/04/11 02:01:33;;;;;;;15.00;6.90;;;;;;;10.86;100.00;99689.33;1716714;82;21039;-72
2022/04/11 02:04:00;;;;;;;14.07;6.67;;;;;;;10.85;100.00;99695.41;1716851;83;21047;-71
2022/04/11 02:06:30;;;;;;;10.95;6.58;;;;;;;10.83;100.00;99691.63;1716396;84;21080;-71
2022/04/11 02:09:00;;;;;;;17.12;7.22;;;;;;;10.82;100.00;99695.58;1736878;82;21472;-70
2022/04/11 02:11:29;;;;;;;12.93;6.50;;;;;;;10.78;100.00;99704.40;1726610;83;21160;-71
2022/04/11 02:13:56;;;;;;;11.50;6.65;;;;;;;10.78;100.00;99707.80;1729561;82;21023;-72
2022/04/11 02:16:25;;;;;;;12.78;6.50;;;;;;;10.76;100.00;99704.48;1757333;81;21035;-71
2022/04/11 02:18:53;;;;;;;18.45;7.35;;;;;;;10.71;100.00;99693.63;1757184;82;21061;-72
2022/04/11 02:21:22;;;;;;;14.13;7.50;;;;;;;10.70;100.00;99697.58;1757309;80;21619;-70
2022/04/11 02:23:49;;;;;;;17.62;6.65;;;;;;;10.70;100.00;99695.82;1757112;81;21535;-69
2022/04/11 02:26:18;;;;;;;14.35;7.17;;;;;;;10.71;100.00;99700.53;1729446;82;21038;-71
2022/04/11 02:28:46;;;;;;;16.20;7.53;;;;;;;10.66;100.00;99693.52;1757429;81;21070;-71
2022/04/11 02:31:16;;;;;;;17.12;7.22;;;;;;;10.60;100.00;99692.12;1757070;80;21143;-72
2022/04/11 02:33:44;;;;;;;17.90;7.30;;;;;;;10.60;100.00;99692.97;1757316;81;21007;-71
2022/04/11 02:36:12;;;;;;;13.48;7.10;;;;;;;10.57;100.00;99686.70;1757144;80;21027;-72
2022/04/11 02:38:40;;;;;;;14.70;7.72;;;;;;;10.66;100.00;99690.95;1757063;80;21082;-71
2022/04/11 02:41:07;;;;;;;13.38;7.95;;;;;;;10.71;100.00;99692.34;1757088;81;21042;-72
2022/04/11 02:43:40;;;;;;;15.90;7.35;;;;;;;10.80;100.00;99684.08;1756424;80;21078;-71
2022/04/11 02:46:10;;;;;;;16.93;7.20;;;;;;;10.89;100.00;99685.73;1757282;80;21062;-71
2022/04/11 02:48:39;;;;;;;14.85;7.25;;;;;;;10.92;100.00;99682.53;1756959;80;20988;-71
2022/04/11 02:51:09;;;;;;;17.52;8.18;;;;;;;10.90;100.00;99682.27;1749077;80;21019;-72
2022/04/11 02:53:38;;;;;;;16.30;7.58;;;;;;;10.86;100.00;99678.21;1756327;80;21491;-71
2022/04/11 02:56:07;;;;;;;17.45;7.45;;;;;;;10.84;100.00;99691.16;1756895;81;20999;-71
2022/04/11 02:58:36;;;;;;;16.37;7.65;;;;;;;10.88;100.00;99691.36;1756854;81;21079;-72
2022/04/11 03:01:05;;;;;;;17.00;7.70;;;;;;;10.84;100.00;99693.74;1756894;81;21035;-72
2022/04/11 03:03:32;;;;;;;13.35;7.20;;;;;;;10.75;100.00;99686.57;1756998;80;21037;-72
2022/04/11 03:06:00;;;;;;;19.02;7.45;;;;;;;10.71;100.00;99684.62;1756948;81;21043;-72
2022/04/11 03:08:30;;;;;;;16.25;7.30;;;;;;;10.72;100.00;99683.69;1751289;80;21559;-72
2022/04/11 03:10:59;;;;;;;14.50;7.30;;;;;;;10.71;100.00;99687.20;1752174;81;21608;-72
2022/04/11 03:13:26;;;;;;;17.23;7.55;;;;;;;10.72;100.00;99685.45;1752210;81;21103;-72
2022/04/11 03:15:53;;;;;;;17.80;7.87;;;;;;;10.70;100.00;99687.28;1752447;81;21137;-72
2022/04/11 03:18:23;;;;;;;19.37;7.42;;;;;;;10.65;100.00;99692.70;1752364;80;21584;-71
2022/04/11 03:20:51;;;;;;;13.98;7.97;;;;;;;10.65;100.00;99698.31;1752371;81;21047;-71
2022/04/11 03:23:19;;;;;;;19.45;8.10;;;;;;;10.68;100.00;99692.51;1752468;81;21066;-72
2022/04/11 03:25:49;;;;;;;21.40;7.78;;;;;;;10.69;100.00;99694.65;1752264;80;21020;-71
2022/04/11 03:28:19;;;;;;;12.70;6.92;;;;;;;10.74;100.00;99688.76;1752300;82;21011;-72
2022/04/11 03:30:47;;;;;;;15.13;7.60;;;;;;;10.76;100.00;99685.17;1752220;81;22664;-71
2022/04/11 03:33:18;;;;;;;14.45;7.65;;;;;;;10.69;100.00;99690.32;1752191;80;21074;-71
2022/04/11 03:35:46;;;;;;;16.60;7.60;;;;;;;10.67;100.00;99690.87;1752438;80;21524;-72
2022/04/11 03:38:13;;;;;;;16.75;7.80;;;;;;;10.69;100.00;99683.06;1752158;80;21063;-69
2022/04/11 03:40:41;;;;;;;18.17;7.58;;;;;;;10.70;100.00;99680.84;1722967;81;21039;-71
2022/04/11 03:43:11;;;;;;;18.42;8.18;;;;;;;10.72;100.00;99690.59;1751990;82;21082;-71
2022/04/11 03:45:39;;;;;;;16.55;7.40;;;;;;;10.84;100.00;99693.74;1752067;81;21016;-70
2022/04/11 03:48:07;;;;;;;15.75;7.85;;;;;;;10.91;100.00;99692.91;1752445;81;21066;-71
2022/04/11 03:50:39;;;;;;;14.73;7.67;;;;;;;10.98;100.00;99695.52;1752103;80;21495;-71
2022/04/11 03:53:06;;;;;;;15.18;7.60;;;;;;;11.07;100.00;99695.42;1752491;81;21130;-71
2022/04/11 03:55:34;;;;;;;15.53;7.75;;;;;;;11.12;100.00;99703.25;1722780;82;21058;-70
2022/04/11 03:58:04;;;;;;;14.58;7.75;;;;;;;11.19;100.00;99706.28;1752080;80;21114;-71
2022/04/11 04:00:36;;;;;;;13.83;7.37;;;;;;;11.20;100.00;99708.78;1752523;81;21515;-71
2022/04/11 04:03:12;;;;;;;15.38;7.75;;;;;;;11.28;100.00;99713.95;1724486;82;21512;-71
2022/04/11 04:05:46;;;;;;;16.82;7.72;;;;;;;11.38;100.00;99715.88;1752131;82;21090;-72
2022/04/11 04:08:18;;;;;;;16.90;7.25;;;;;;;11.45;100.00;99727.09;1752752;80;21078;-71
2022/04/11 04:10:49;;;;;;;14.07;7.45;;;;;;;11.43;100.00;99729.33;1757000;81;21039;-71
2022/04/11 04:13:17;;;;;;;18.02;7.05;;;;;;;11.50;100.00;99738.80;1752670;81;21029;-71
2022/04/11 04:15:46;;;;;;;18.45;7.28;;;;;;;11.56;100.00;99745.34;1746849;82;22162;-70
2022/04/11 04:18:15;;;;;;;19.98;7.95;;;;;;;11.46;100.00;99741.19;1746927;82;21067;-70
2022/04/11 04:20:43;;;;;;;17.62;7.60;;;;;;;11.28;100.00;99739.25;1746842;82;21047;-71
2022/04/11 04:23:11;;;;;;;13.88;7.15;;;;;;;11.38;100.00;99738.24;1747250;81;21027;-71
2022/04/11 04:25:40;;;;;;;16.20;7.55;;;;;;;11.49;100.00;99735.02;1747030;81;21031;-71
2022/04/11 04:28:08;;;;;;;17.70;7.55;;;;;;;11.61;100.00;99736.38;1747384;81;21058;-71
2022/04/11 04:30:37;;;;;;;18.90;7.42;;;;;;;11.70;100.00;99726.42;1747017;82;21055;-71
2022/04/11 04:33:06;;;;;;;14.80;6.92;;;;;;;11.79;100.00;99726.70;1727652;82;21051;-71
2022/04/11 04:35:35;;;;;;;19.57;8.28;;;;;;;11.90;100.00;99731.68;1747261;82;20999;-70
2022/04/11 04:38:05;;;;;;;15.55;7.90;;;;;;;11.95;100.00;99737.39;1746762;82;21504;-71
2022/04/11 04:40:35;;;;;;;15.98;7.85;;;;;;;12.05;100.00;99740.23;1747027;82;21004;-71
2022/04/11 04:43:04;;;;;;;20.23;8.48;;;;;;;12.12;100.00;99740.20;1746885;81;21043;-71
2022/04/11 04:45:33;;;;;;;16.10;7.72;;;;;;;12.12;100.00;99747.47;1746880;81;21043;-71
2022/04/11 04:48:04;;;;;;;18.70;8.08;;;;;;;12.10;100.00;99744.63;1745677;81;21519;-70
2022/04/11 04:50:31;;;;;;;19.77;7.95;;;;;;;12.06;100.00;99753.02;1747076;81;21012;-71
2022/04/11 04:52:58;;;;;;;16.02;7.95;;;;;;;12.04;100.00;99750.99;1747075;81;21078;-71
2022/04/11 04:55:26;;;;;;;21.17;8.90;;;;;;;12.01;100.00;99746.05;1746901;81;21082;-71
2022/04/11 04:57:54;;;;;;;21.20;8.95;;;;;;;12.16;100.00;99753.28;1746784;81;21117;-71
2022/04/11 05:00:22;;;;;;;19.17;8.30;;;;;;;12.15;100.00;99751.64;1746991;81;21035;-71
2022/04/11 05:02:51;;;;;;;16.27;8.25;;;;;;;12.28;100.00;99746.52;1741693;81;21084;-71
2022/04/11 05:05:21;;;;;;;16.95;8.60;;;;;;;12.39;100.00;99746.20;1717032;83;21064;-71
2022/04/11 05:07:49;;;;;;;20.45;8.18;;;;;;;12.49;100.00;99748.19;1729468;82;21008;-70
2022/04/11 05:10:18;;;;;;;18.55;8.98;;;;;;;12.59;100.00;99751.39;1735908;80;21019;-71
2022/04/11 05:12:49;;;;;;;20.48;8.75;;;;;;;12.75;100.00;99759.41;1738235;82;21042;-71
2022/04/11 05:15:18;;;;;;;21.73;8.78;;;;;;;12.90;100.00;99753.73;1738290;82;21509;-71
2022/04/11 05:17:48;;;;;;;19.50;9.08;;;;;;;13.00;100.00;99747.02;1733226;82;21447;-72
2022/04/11 05:20:16;;;;;;;19.42;8.60;;;;;;;13.18;100.00;99749.67;1728816;81;21043;-72
2022/04/11 05:22:44;;;;;;;20.50;8.80;;;;;;;13.31;100.00;99760.03;1728579;82;21023;-71
2022/04/11 05:25:14;;;;;;;16.10;8.43;;;;;;;13.42;100.00;99756.71;1728703;82;21540;-71
2022/04/11 05:27:41;;;;;;;21.35;8.80;;;;;;;13.48;100.00;99756.77;1773720;80;21013;-71
2022/04/11 05:30:10;;;;;;;18.57;9.23;;;;;;;13.55;100.00;99749.78;1753506;79;21017;-72
2022/04/11 05:32:40;;;;;;;19.07;8.53;;;;;;;13.74;100.00;99753.21;1778082;80;22270;-71
2022/04/11 05:35:09;;;;;;;17.10;9.18;;;;;;;13.95;100.00;99749.61;1775919;79;20980;-71
2022/04/11 05:37:38;;;;;;;24.70;10.15;;;;;;;14.17;100.00;99746.78;1725126;81;21010;-71
2022/04/11 05:40:09;;;;;;;19.65;8.83;;;;;;;14.22;100.00;99747.30;1741340;81;21042;-71
2022/04/11 05:42:37;;;;;;;22.30;8.98;;;;;;;14.31;100.00;99744.50;1717415;82;21461;-71
2022/04/11 05:45:06;;;;;;;24.27;9.33;;;;;;;14.35;100.00;99738.98;1749001;80;20972;-71
2022/04/11 05:47:34;;;;;;;18.90;9.10;;;;;;;14.50;100.00;99735.77;1755980;80;21002;-71
2022/04/11 05:50:02;;;;;;;22.02;9.90;;;;;;;14.70;100.00;99735.64;1763629;80;20944;-71
2022/04/11 05:52:31;;;;;;;17.90;9.30;;;;;;;14.62;100.00;99731.50;1778215;79;21606;-71
2022/04/11 05:54:58;;;;;;;27.25;9.83;;;;;;;14.80;100.00;99728.84;1778574;81;21044;-70
2022/04/11 05:57:26;;;;;;;23.27;9.88;;;;;;;14.82;100.00;99731.30;1778047;80;21015;-70
2022/04/11 05:59:53;;;;;;;20.12;9.60;;;;;;;14.99;100.00;99729.58;1778132;79;21049;-70
2022/04/11 06:02:21;;;;;;;24.15;10.88;;;;;;;15.22;100.00;99731.72;1778344;80;21052;-71
2022/04/11 06:04:50;;;;;;;23.87;10.85;;;;;;;15.39;100.00;99739.53;1778176;79;21040;-71
2022/04/11 06:07:20;;;;;;;26.87;10.82;;;;;;;15.51;100.00;99736.92;1753092;81;21538;-71
2022/04/11 06:09:49;;;;;;;21.12;10.55;;;;;;;15.67;100.00;99737.87;1771337;79;21042;-71
2022/04/11 06:12:18;;;;;;;26.65;10.85;;;;;;;15.76;100.00;99743.20;1746647;80;20989;-71
2022/04/11 06:14:48;;;;;;;23.40;10.85;;;;;;;16.00;100.00;99740.94;1742235;81;21485;-71
2022/04/11 06:17:16;;;;;;;62.60;29.37;;;;;;;16.15;100.00;99741.48;1749824;80;21033;-71
2022/04/11 06:19:44;;;;;;;63.68;33.83;;;;;;;16.36;98.48;99740.23;1742363;81;21028;-71
2022/04/11 06:22:11;;;;;;;65.75;31.90;;;;;;;15.81;98.66;99743.69;1742273;81;21043;-71
2022/04/11 06:24:39;;;;;;;56.33;31.33;;;;;;;15.82;100.00;99750.52;1742009;82;20985;-71
2022/04/11 06:27:06;;;;;;;57.50;30.70;;;;;;;16.04;100.00;99751.43;1749881;80;21011;-70
2022/04/11 06:29:35;;;;;;;57.15;30.82;;;;;;;15.94;100.00;99755.70;1748798;81;21049;-70
2022/04/11 06:32:05;;;;;;;52.98;28.60;;;;;;;15.92;100.00;99752.40;1769863;80;21028;-70
2022/04/11 06:34:36;;;;;;;50.10;28.50;;;;;;;16.40;99.87;99749.42;1723305;82;21119;-70
2022/04/11 06:37:05;;;;;;;48.80;28.70;;;;;;;16.37;99.51;99749.69;1725453;81;21027;-71
2022/04/11 06:39:32;;;;;;;51.75;27.40;;;;;;;16.14;99.57;99748.91;1742354;82;21001;-71
2022/04/11 06:42:01;;;;;;;54.50;28.10;;;;;;;16.32;100.00;99749.21;1742109;81;21031;-70
2022/04/11 06:44:32;;;;;;;55.33;29.85;;;;;;;16.21;99.62;99752.68;1758712;81;21052;-71
2022/04/11 06:47:09;;;;;;;57.20;30.70;;;;;;;16.32;100.00;99751.36;1761601;80;21018;-70
2022/04/11 06:49:39;;;;;;;58.92;32.70;;;;;;;16.19;99.41;99758.47;1760883;80;21030;-71
2022/04/11 06:52:07;;;;;;;58.58;30.75;;;;;;;16.19;99.26;99769.67;1752969;81;21031;-70
2022/04/11 06:54:36;;;;;;;54.10;29.77;;;;;;;16.64;98.42;99773.89;1753558;80;21038;-71
2022/04/11 06:57:04;;;;;;;47.30;26.25;;;;;;;16.98;95.93;99789.38;1760664;81;21578;-69
2022/04/11 06:59:32;;;;;;;39.30;24.98;;;;;;;17.07;96.41;99789.08;1761145;80;21524;-71
2022/04/11 07:02:00;;;;;;;40.35;24.00;;;;;;;16.65;96.97;99783.36;1761132;80;21034;-69
2022/04/11 07:04:28;;;;;;;39.55;23.75;;;;;;;16.19;100.00;99798.23;1760435;81;21007;-71
2022/04/11 07:06:55;;;;;;;39.40;23.45;;;;;;;16.39;99.81;99793.24;1759781;81;21101;-71
2022/04/11 07:09:23;;;;;;;39.35;23.55;;;;;;;16.16;100.00;99789.41;1760348;80;21035;-69
2022/04/11 07:11:51;;;;;;;39.55;22.30;;;;;;;16.20;100.00;99797.78;1762280;80;21038;-71
2022/04/11 07:14:21;;;;;;;39.95;21.50;;;;;;;15.65;100.00;99785.16;1762527;80;21022;-71
2022/04/11 07:16:52;;;;;;;39.20;20.60;;;;;;;15.25;100.00;99792.06;1762417;80;21066;-71
2022/04/11 07:19:20;;;;;;;35.90;19.00;;;;;;;14.98;100.00;99797.92;1762103;80;21104;-70
2022/04/11 07:21:49;;;;;;;33.53;17.62;;;;;;;14.92;100.00;99808.74;1749087;81;21629;-70
2022/04/11 07:24:16;;;;;;;29.07;15.55;;;;;;;14.49;100.00;99805.33;1748939;81;21105;-70
2022/04/11 07:26:49;;;;;;;37.63;17.30;;;;;;;14.26;100.00;99819.91;1749127;80;21499;-70
2022/04/11 07:29:16;;;;;;;33.00;16.60;;;;;;;13.96;100.00;99802.18;1749236;80;21744;-71
2022/04/11 07:31:43;;;;;;;37.85;17.12;;;;;;;13.84;100.00;99809.02;1748907;81;21059;-70
2022/04/11 07:34:12;;;;;;;30.32;15.25;;;;;;;13.89;100.00;99799.64;1749232;81;21054;-70
2022/04/11 07:36:39;;;;;;;31.15;16.23;;;;;;;13.85;100.00;99809.84;1749050;81;22174;-71
2022/04/11 07:39:06;;;;;;;35.52;15.93;;;;;;;13.71;100.00;99805.64;1749127;80;21656;-71
2022/04/11 07:41:33;;;;;;;29.92;15.65;;;;;;;13.63;100.00;99795.34;1756998;80;21074;-70
2022/04/11 07:44:03;;;;;;;33.18;15.55;;;;;;;13.81;100.00;99798.91;1756639;82;21134;-71
2022/04/11 07:46:31;;;;;;;27.35;14.68;;;;;;;13.88;100.00;99811.76;1757220;80;21097;-70
2022/04/11 07:48:59;;;;;;;32.65;16.77;;;;;;;14.07;100.00;99822.98;1756985;80;21118;-70
2022/04/11 07:51:27;;;;;;;28.95;15.95;;;;;;;14.31;100.00;99829.94;1757270;82;21058;-71
2022/04/11 07:53:54;;;;;;;30.57;15.55;;;;;;;14.31;100.00;99836.41;1746245;81;21085;-70
2022/04/11 07:56:22;;;;;;;33.63;14.98;;;;;;;14.42;100.00;99837.79;1746382;81;21059;-70
2022/04/11 07:58:49;;;;;;;29.95;14.28;;;;;;;14.41;100.00;99842.12;1746035;82;21519;-70
2022/04/11 08:01:17;;;;;;;27.73;13.85;;;;;;;14.29;100.00;99847.34;1746144;82;21078;-71
2022/04/11 08:03:44;;;;;;;26.17;12.58;;;;;;;14.03;100.00;99851.30;1746355;81;21070;-71
2022/04/11 08:06:11;;;;;;;27.42;12.95;;;;;;;13.98;100.00;99850.30;1746478;82;21023;-71
2022/04/11 08:08:47;;;;;;;25.60;12.53;;;;;;;13.90;100.00;99842.70;1747272;82;21052;-71
2022/04/11 08:11:18;;;;;;;21.62;11.55;;;;;;;14.03;100.00;99844.83;1747033;82;21081;-72
2022/04/11 08:13:47;;;;;;;22.52;11.03;;;;;;;13.86;100.00;99843.38;1747207;82;20998;-70
2022/04/11 08:16:15;;;;;;;22.25;11.03;;;;;;;13.71;100.00;99850.91;1746868;81;21031;-71
2022/04/11 08:18:43;;;;;;;20.32;10.20;;;;;;;13.54;100.00;99842.50;1746934;81;21090;-72
2022/04/11 08:21:10;;;;;;;23.00;10.53;;;;;;;13.56;100.00;99838.05;1747160;81;21066;-70
2022/04/11 08:23:38;;;;;;;22.98;10.85;;;;;;;13.94;100.00;99832.51;1746872;82;21051;-70
2022/04/11 08:26:06;;;;;;;24.43;10.75;;;;;;;13.66;100.00;99839.55;1747067;81;21071;-70
2022/04/11 08:28:34;;;;;;;22.32;10.08;;;;;;;14.12;100.00;99836.41;1746401;82;21075;-70
2022/04/11 08:31:02;;;;;;;24.12;10.90;;;;;;;14.13;100.00;99846.28;1746214;81;21055;-70
2022/04/11 08:33:29;;;;;;;28.73;12.07;;;;;;;14.10;100.00;99852.98;1746910;82;21039;-72
2022/04/11 08:35:56;;;;;;;24.02;11.00;;;;;;;13.99;100.00;99848.53;1747080;82;21052;-71
2022/04/11 08:38:24;;;;;;;24.00;10.45;;;;;;;14.07;100.00;99847.56;1747154;82;21035;-71
2022/04/11 08:40:54;;;;;;;23.47;9.63;;;;;;;14.18;100.00;99837.27;1720109;83;21056;-70
2022/04/11 08:43:25;;;;;;;23.47;10.15;;;;;;;14.30;100.00;99822.65;1714306;83;21097;-71
2022/04/11 08:45:54;;;;;;;21.33;9.53;;;;;;;14.56;100.00;99829.89;1714442;83;21019;-70
2022/04/11 08:48:22;;;;;;;24.02;11.68;;;;;;;14.85;100.00;99823.07;1714207;83;21040;-68
2022/04/11 08:50:50;;;;;;;23.42;11.03;;;;;;;14.96;100.00;99815.35;1714169;83;21044;-72
2022/04/11 08:53:22;;;;;;;21.20;11.50;;;;;;;14.81;100.00;99826.83;1714200;83;21000;-71
2022/04/11 08:55:50;;;;;;;25.37;13.08;;;;;;;14.75;100.00;99823.38;1714159;83;21192;-69
2022/04/11 08:58:19;;;;;;;25.70;13.72;;;;;;;15.26;100.00;99815.77;1714351;83;21644;-70
2022/04/11 09:00:47;;;;;;;22.48;11.93;;;;;;;15.50;100.00;99811.81;1714279;83;21056;-71
2022/04/11 09:03:15;;;;;;;29.20;14.75;;;;;;;15.45;100.00;99806.12;1714269;84;21068;-70
2022/04/11 09:05:44;;;;;;;34.30;16.70;;;;;;;15.96;100.00;99818.22;1714253;84;21129;-71
2022/04/11 09:08:12;;;;;;;34.33;15.32;;;;;;;15.72;100.00;99814.45;1695921;84;21099;-70
2022/04/11 09:10:42;;;;;;;35.75;13.60;;;;;;;15.43;100.00;99808.86;1708950;83;21049;-71
2022/04/11 09:13:10;;;;;;;28.23;13.25;;;;;;;15.62;100.00;99793.53;1755442;81;21047;-70
2022/04/11 09:15:41;;;;;;;26.97;13.13;;;;;;;15.78;100.00;99801.00;1755560;82;21051;-70
2022/04/11 09:18:09;;;;;;;29.98;14.90;;;;;;;15.71;99.53;99801.07;1728751;82;21019;-69
2022/04/11 09:20:43;;;;;;;30.97;13.68;;;;;;;15.72;98.92;99804.52;1755381;80;21047;-70
2022/04/11 09:23:21;;;;;;;30.65;12.55;;;;;;;15.98;98.63;99807.25;1755626;82;22243;-70
2022/04/11 09:25:48;;;;;;;30.30;12.05;;;;;;;16.15;97.10;99807.22;1755649;81;21026;-70
2022/04/11 09:28:17;;;;;;;25.10;10.80;;;;;;;16.18;96.05;99807.44;1755587;81;21476;-70
2022/04/11 09:30:49;;;;;;;25.05;11.63;;;;;;;15.73;97.28;99812.19;1755426;82;21019;-71
2022/04/11 09:33:18;;;;;;;25.12;12.20;;;;;;;15.74;98.81;99808.67;1755700;82;21023;-71
2022/04/11 09:35:47;;;;;;;25.37;11.68;;;;;;;15.73;98.25;99810.89;1755594;81;21031;-71
2022/04/11 09:38:18;;;;;;;29.60;11.90;;;;;;;15.77;97.34;99798.06;1755717;81;21083;-70
2022/04/11 09:40:53;;;;;;;26.65;11.50;;;;;;;15.93;96.71;99792.48;1755851;81;21052;-71
2022/04/11 09:43:34;;;;;;;26.12;13.35;;;;;;;16.02;95.99;99805.24;1754994;80;21038;-70
2022/04/11 09:46:03;;;;;;;23.40;10.05;;;;;;;15.98;96.46;99793.45;1755359;82;21071;-69
2022/04/11 09:48:35;;;;;;;18.62;8.10;;;;;;;16.35;95.87;99778.85;1755674;82;21035;-72
2022/04/11 09:51:13;;;;;;;22.02;10.05;;;;;;;15.90;95.00;99787.55;1755527;82;21027;-70
2022/04/11 09:53:41;;;;;;;21.57;9.90;;;;;;;15.54;96.89;99787.28;1755681;80;21007;-72
2022/04/11 09:56:10;;;;;;;15.15;8.85;;;;;;;15.23;98.71;99783.12;1755336;82;21050;-72
2022/04/11 09:58:41;;;;;;;22.77;10.80;;;;;;;15.24;99.54;99774.40;1755618;82;21058;-71
2022/04/11 10:01:10;;;;;;;22.52;10.60;;;;;;;15.59;99.50;99781.26;1755622;80;21535;-70
2022/04/11 10:03:40;;;;;;;18.98;10.50;;;;;;;15.55;99.24;99774.20;1755604;82;21074;-71
2022/04/11 10:06:12;;;;;;;21.02;10.28;;;;;;;15.65;100.00;99784.68;1755048;82;21550;-72
2022/04/11 10:08:42;;;;;;;19.25;9.40;;;;;;;15.80;98.00;99780.13;1755444;80;21149;-72
2022/04/11 10:11:11;;;;;;;17.65;7.90;;;;;;;16.16;95.67;99778.17;1751312;81;21015;-71
2022/04/11 10:13:39;;;;;;;18.12;7.50;;;;;;;16.24;95.64;99760.23;1705435;84;21044;-71
2022/04/11 10:16:07;;;;;;;13.30;6.85;;;;;;;16.32;94.47;99768.69;1740594;82;21532;-71
2022/04/11 10:18:36;;;;;;;14.33;7.35;;;;;;;16.23;93.92;99773.67;1705674;84;21044;-71
2022/04/11 10:21:09;;;;;;;14.30;6.65;;;;;;;16.27;94.24;99777.34;1700251;84;21017;-71
2022/04/11 10:23:48;;;;;;;11.03;6.40;;;;;;;16.29;93.11;99781.45;1673648;86;21038;-70
2022/04/11 10:26:19;;;;;;;15.40;7.08;;;;;;;16.16;94.08;99776.88;1702942;84;21626;-72
2022/04/11 10:28:51;;;;;;;12.15;6.25;;;;;;;16.17;94.62;99784.55;1675393;86;21028;-72
2022/04/11 10:31:20;;;;;;;8.75;5.78;;;;;;;16.32;93.34;99783.83;1705223;84;21083;-72
2022/04/11 10:33:57;;;;;;;10.58;5.58;;;;;;;16.43;92.70;99779.87;1659583;86;21076;-70
2022/04/11 10:36:36;;;;;;;12.82;6.90;;;;;;;16.35;91.55;99780.97;1704784;84;21092;-71
2022/04/11 10:39:20;;;;;;;9.45;5.58;;;;;;;16.30;92.35;99781.83;1664718;85;21485;-71
2022/04/11 10:42:06;;;;;;;14.07;6.33;;;;;;;16.34;91.75;99768.09;1665859;85;21553;-70
2022/04/11 10:44:41;;;;;;;12.30;5.50;;;;;;;16.27;91.48;99774.74;1660421;85;21105;-70
2022/04/11 10:47:15;;;;;;;15.63;5.75;;;;;;;16.41;91.14;99779.66;1660400;85;21006;-69
2022/04/11 10:49:55;;;;;;;9.80;5.85;;;;;;;16.31;91.24;99782.16;1681358;85;21516;-70
2022/04/11 10:52:36;;;;;;;15.65;6.45;;;;;;;16.22;91.28;99777.23;1745169;82;21040;-70
2022/04/11 10:55:11;;;;;;;12.05;6.37;;;;;;;16.55;89.64;99769.45;1707492;84;21083;-71
2022/04/11 10:57:46;;;;;;;10.93;6.53;;;;;;;16.72;89.05;99775.88;1745047;82;21083;-70
2022/04/11 11:00:19;;;;;;;17.30;8.13;;;;;;;16.33;88.98;99778.97;1709258;83;21066;-70
2022/04/11 11:03:01;;;;;;;12.68;6.47;;;;;;;16.55;89.05;99775.47;1705519;84;21056;-71
2022/04/11 11:05:39;;;;;;;10.68;6.03;;;;;;;16.36;88.78;99779.19;1744845;82;21113;-71
2022/04/11 11:08:21;;;;;;;8.58;5.15;;;;;;;16.26;88.98;99776.97;1704423;84;21084;-71
2022/04/11 11:10:59;;;;;;;10.45;5.53;;;;;;;16.57;88.20;99771.45;1720849;82;21067;-70
2022/04/11 11:13:40;;;;;;;12.50;5.70;;;;;;;16.42;88.43;99783.89;1754838;80;20983;-71
2022/04/11 11:16:15;;;;;;;7.50;5.10;;;;;;;16.70;86.90;99782.97;1755513;81;21546;-71
2022/04/11 11:18:52;;;;;;;11.10;4.83;;;;;;;16.77;86.53;99786.25;1755433;80;21137;-71
2022/04/11 11:21:43;;;;;;;10.63;5.37;;;;;;;16.65;86.04;99783.36;1755442;81;21063;-71
2022/04/11 11:24:15;;;;;;;10.55;4.85;;;;;;;16.81;84.99;99785.56;1751309;82;21540;-71
2022/04/11 11:26:54;;;;;;;10.78;5.50;;;;;;;16.90;84.73;99790.00;1755669;80;20979;-71
2022/04/11 11:29:38;;;;;;;11.78;4.90;;;;;;;16.92;83.21;99798.49;1755256;81;21055;-70